Location Norrisville, MD, US

ob CW6888 180900Z AUTO 27000G01KT CLR 04/02 A3033 RMK SLPNO 

2017.10.18 0900 UTC
Wind from the W (269 degrees) at Calm MPH ( KT) gusting to 1.0 MPH (1 KT)
Visibility    Mile(s)
Sky Conditions  clear
Temperature 39.90 F (4 C)
Dew Point 36.35 F (2 C)
Relative Humidity 87%
Pressure   30.33 in. Hg (1027 hPa)
Rain  0.00 in.
Daily Rain  in.

Station Name  Sola Virtus Observatory
Longitude, Latitude  -76.5447, 39.7025
Elevation 738
Station URL http://sola-virtus-observatory.org
Software Type VWS V15.00